Bremen, Ohio
Current Conditions -  °F | °C
As of 12:53 AM on Thursday 23 Oct 2014 (Local Time) from KLHQ Reporting Station
Scattered Clouds Scattered Clouds  
Wind Chill: 45°   Ceiling: Unl
Heat Index: 45°   Visibility: 10mi
Dew Point: 41°   Wind: 0mph
Humidity: 86%   Direction: NA
Pressure: 30.22"   Gusts: NA
Location:  39.7°N, 82.43°W
Report Text: KLHQ 230453Z AUTO 00000KT 10SM SCT033 07/05 A3022 RMK AO2 SLP237 T00720050 401060072
Loading
Personal Weather Stations






























Interactive Weather Map
Tropical Storm Tracking
New forecast layout! Learn more

10-Day Weather Forecast

Advertisements
Track Severe Weather on mobile